Time;durP1;ratioP1;P1;durP2;ratioP2;P2;SDS_P1;SDS_P2;PMS_P1;PMS_P2;Temp;Humidity;BMP_temperature;BMP_pressure;BME280_temperature;BME280_humidity;BME280_pressure;Samples;Min_cycle;Max_cycle;Signal;HPM_P1;HPM_P2
2023/03/02 00:00:32;;;;;;;;;;;;;;;;;;5024652;28;19929;-83
2023/03/02 00:02:57;;;;;;;;;;;;;;;;;;5026660;28;20016;-83
2023/03/02 00:05:23;;;;;;;;;;;;;;;;;;5022188;28;19914;-83
2023/03/02 00:07:48;;;;;;;;;;;;;;;;;;5021883;28;19941;-83
2023/03/02 00:10:13;;;;;;;;;;;;;;;;;;5028351;28;19917;-82
2023/03/02 00:12:38;;;;;;;;;;;;;;;;;;5026687;28;19913;-84
2023/03/02 00:15:03;;;;;;;;;;;;;;;;;;5020327;28;19956;-82
2023/03/02 00:17:29;;;;;;;;;;;;;;;;;;5022379;28;19917;-84
2023/03/02 00:19:54;;;;;;;;;;;;;;;;;;5031846;28;20279;-83
2023/03/02 00:22:19;;;;;;;;;;;;;;;;;;5015321;28;19921;-82
2023/03/02 00:24:44;;;;;;;;;;;;;;;;;;5028158;28;19937;-83
2023/03/02 00:27:09;;;;;;;;;;;;;;;;;;5026153;28;19923;-84
2023/03/02 00:29:35;;;;;;;;;;;;;;;;;;5024235;28;19960;-84
2023/03/02 00:32:00;;;;;;;;;;;;;;;;;;5030028;28;19920;-84
2023/03/02 00:34:26;;;;;;;;;;;;;;;;;;5012130;28;19917;-85
2023/03/02 00:36:51;;;;;;;;;;;;;;;;;;5024405;28;19913;-83
2023/03/02 00:39:18;;;;;;;;;;;;;;;;;;5022467;28;19921;-86
2023/03/02 00:41:44;;;;;;;;;;;;;;;;;;5033008;28;19917;-84
2023/03/02 00:44:16;;;;;;;;;;;;;;;;;;5032304;28;19921;-82
2023/03/02 00:46:41;;;;;;;;;;;;;;;;;;5024449;28;19978;-84
2023/03/02 00:49:06;;;;;;;;;;;;;;;;;;5027858;28;20010;-84
2023/03/02 00:51:31;;;;;;;;;;;;;;;;;;5027095;28;20291;-84
2023/03/02 00:54:01;;;;;;;;;;;;;;;;;;5031943;28;19928;-83
2023/03/02 00:56:26;;;;;;;;;;;;;;;;;;5028957;28;19917;-82
2023/03/02 00:58:51;;;;;;;;;;;;;;;;;;5026850;28;20389;-83
2023/03/02 01:01:17;;;;;;;;;;;;;;;;;;5028544;28;19948;-82
2023/03/02 01:03:42;;;;;;;;;;;;;;;;;;5029859;28;19943;-85
2023/03/02 01:06:07;;;;;;;;;;;;;;;;;;5026449;28;19920;-83
2023/03/02 01:08:32;;;;;;;;;;;;;;;;;;5028325;28;20329;-82
2023/03/02 01:11:00;;;;;;;;;;;;;;;;;;5029564;28;20391;-82
2023/03/02 01:13:25;;;;;;;;;;;;;;;;;;5025471;28;20404;-82
2023/03/02 01:15:50;;;;;;;;;;;;;;;;;;5024172;28;19913;-83
2023/03/02 01:18:15;;;;;;;;;;;;;;;;;;5029911;28;19925;-83
2023/03/02 01:20:40;;;;;;;;;;;;;;;;;;5027228;28;20394;-85
2023/03/02 01:23:05;;;;;;;;;;;;;;;;;;5024899;28;19931;-83
2023/03/02 01:25:31;;;;;;;;;;;;;;;;;;5029372;28;20314;-84
2023/03/02 01:27:57;;;;;;;;;;;;;;;;;;5030665;28;19913;-83
2023/03/02 01:30:22;;;;;;;;;;;;;;;;;;5022955;28;20012;-83
2023/03/02 01:32:47;;;;;;;;;;;;;;;;;;5014431;28;20365;-82
2023/03/02 01:35:12;;;;;;;;;;;;;;;;;;5024102;28;19917;-83
2023/03/02 01:37:37;;;;;;;;;;;;;;;;;;5027675;28;19967;-82
2023/03/02 01:40:05;;;;;;;;;;;;;;;;;;5027371;28;19918;-84
2023/03/02 01:42:30;;;;;;;;;;;;;;;;;;5017840;28;19916;-82
2023/03/02 01:44:56;;;;;;;;;;;;;;;;;;5028346;28;19913;-84
2023/03/02 01:47:21;;;;;;;;;;;;;;;;;;5026177;28;19921;-83
2023/03/02 01:49:46;;;;;;;;;;;;;;;;;;5026871;28;19917;-87
2023/03/02 01:52:11;;;;;;;;;;;;;;;;;;5032133;28;19982;-84
2023/03/02 01:54:36;;;;;;;;;;;;;;;;;;5028529;28;19918;-82
2023/03/02 01:57:04;;;;;;;;;;;;;;;;;;5029820;28;20007;-86
2023/03/02 01:59:30;;;;;;;;;;;;;;;;;;5024013;28;19921;-84
2023/03/02 02:01:55;;;;;;;;;;;;;;;;;;5027051;28;19921;-83
2023/03/02 02:04:20;;;;;;;;;;;;;;;;;;5030759;28;19949;-84
2023/03/02 02:06:45;;;;;;;;;;;;;;;;;;5028102;28;19923;-84
2023/03/02 02:09:10;;;;;;;;;;;;;;;;;;5029012;28;19972;-84
2023/03/02 02:11:36;;;;;;;;;;;;;;;;;;5027831;28;19975;-84
2023/03/02 02:14:01;;;;;;;;;;;;;;;;;;5033941;28;20251;-83
2023/03/02 02:16:26;;;;;;;;;;;;;;;;;;5025795;28;19917;-83
2023/03/02 02:18:51;;;;;;;;;;;;;;;;;;5025765;28;19968;-84
2023/03/02 02:21:16;;;;;;;;;;;;;;;;;;5024000;28;19959;-84
2023/03/02 02:23:42;;;;;;;;;;;;;;;;;;5026140;28;19914;-84
2023/03/02 02:26:07;;;;;;;;;;;;;;;;;;5027798;28;19917;-84
2023/03/02 02:28:32;;;;;;;;;;;;;;;;;;5039420;28;19917;-84
2023/03/02 02:30:57;;;;;;;;;;;;;;;;;;5027996;28;19917;-85
2023/03/02 02:33:22;;;;;;;;;;;;;;;;;;5024872;28;19917;-86
2023/03/02 02:35:48;;;;;;;;;;;;;;;;;;5031587;28;19913;-83
2023/03/02 02:38:13;;;;;;;;;;;;;;;;;;5023369;28;19928;-83
2023/03/02 02:40:38;;;;;;;;;;;;;;;;;;5024530;28;19921;-83
2023/03/02 02:43:03;;;;;;;;;;;;;;;;;;5022471;28;19959;-85
2023/03/02 02:45:28;;;;;;;;;;;;;;;;;;5021771;28;20007;-83
2023/03/02 02:47:53;;;;;;;;;;;;;;;;;;5027426;28;19917;-85
2023/03/02 02:50:19;;;;;;;;;;;;;;;;;;5026428;28;20283;-84
2023/03/02 02:52:44;;;;;;;;;;;;;;;;;;5024117;28;19914;-83
2023/03/02 02:55:09;;;;;;;;;;;;;;;;;;5021563;28;19914;-85
2023/03/02 02:57:34;;;;;;;;;;;;;;;;;;5022287;28;19924;-83
2023/03/02 02:59:59;;;;;;;;;;;;;;;;;;5024102;28;19921;-86
2023/03/02 03:02:25;;;;;;;;;;;;;;;;;;5024928;28;20374;-84
2023/03/02 03:04:50;;;;;;;;;;;;;;;;;;5026337;28;19917;-84
2023/03/02 03:07:15;;;;;;;;;;;;;;;;;;5018518;28;20283;-83
2023/03/02 03:09:40;;;;;;;;;;;;;;;;;;5018603;28;20345;-86
2023/03/02 03:12:05;;;;;;;;;;;;;;;;;;5026110;28;19921;-84
2023/03/02 03:14:30;;;;;;;;;;;;;;;;;;5025604;28;19913;-85
2023/03/02 03:16:56;;;;;;;;;;;;;;;;;;5022919;28;20366;-87
2023/03/02 03:19:21;;;;;;;;;;;;;;;;;;5018699;28;19956;-83
2023/03/02 03:21:46;;;;;;;;;;;;;;;;;;5023124;28;19913;-86
2023/03/02 03:24:11;;;;;;;;;;;;;;;;;;5024713;28;19913;-84
2023/03/02 03:26:36;;;;;;;;;;;;;;;;;;5021486;28;20383;-84
2023/03/02 03:29:02;;;;;;;;;;;;;;;;;;5018914;28;20016;-84
2023/03/02 03:31:27;;;;;;;;;;;;;;;;;;5020741;28;20036;-84
2023/03/02 03:33:52;;;;;;;;;;;;;;;;;;5021391;28;19924;-84
2023/03/02 03:36:17;;;;;;;;;;;;;;;;;;5023420;28;19983;-84
2023/03/02 03:38:42;;;;;;;;;;;;;;;;;;5022404;28;19914;-82
2023/03/02 03:41:07;;;;;;;;;;;;;;;;;;5020747;28;19999;-81
2023/03/02 03:43:33;;;;;;;;;;;;;;;;;;5021294;28;19956;-82
2023/03/02 03:45:58;;;;;;;;;;;;;;;;;;5022440;28;19921;-82
2023/03/02 03:48:23;;;;;;;;;;;;;;;;;;5016973;28;19920;-82
2023/03/02 03:50:48;;;;;;;;;;;;;;;;;;5022256;28;19923;-82
2023/03/02 03:53:13;;;;;;;;;;;;;;;;;;5021150;28;19975;-82
2023/03/02 03:55:38;;;;;;;;;;;;;;;;;;5022688;28;20434;-83
2023/03/02 03:58:04;;;;;;;;;;;;;;;;;;5022738;28;19920;-82
2023/03/02 04:00:29;;;;;;;;;;;;;;;;;;5027094;28;19917;-82
2023/03/02 04:02:54;;;;;;;;;;;;;;;;;;5023577;28;19943;-82
2023/03/02 04:05:19;;;;;;;;;;;;;;;;;;5023033;28;20537;-83
2023/03/02 04:07:44;;;;;;;;;;;;;;;;;;5023855;28;19918;-83
2023/03/02 04:10:10;;;;;;;;;;;;;;;;;;5030059;28;20369;-83
2023/03/02 04:12:35;;;;;;;;;;;;;;;;;;5022218;28;19984;-83
2023/03/02 04:15:00;;;;;;;;;;;;;;;;;;5024699;28;20229;-83
2023/03/02 04:17:25;;;;;;;;;;;;;;;;;;5020842;28;19924;-83
2023/03/02 04:19:50;;;;;;;;;;;;;;;;;;5020797;28;20464;-83
2023/03/02 04:22:16;;;;;;;;;;;;;;;;;;5025450;28;19963;-83
2023/03/02 04:24:41;;;;;;;;;;;;;;;;;;5030912;28;19914;-82
2023/03/02 04:27:06;;;;;;;;;;;;;;;;;;5023045;28;19950;-83
2023/03/02 04:29:31;;;;;;;;;;;;;;;;;;5024363;28;20321;-83
2023/03/02 04:31:56;;;;;;;;;;;;;;;;;;5022657;28;19968;-83
2023/03/02 04:34:24;;;;;;;;;;;;;;;;;;5023823;28;20555;-83
2023/03/02 04:36:49;;;;;;;;;;;;;;;;;;5023533;28;19913;-83
2023/03/02 04:39:14;;;;;;;;;;;;;;;;;;5024159;28;19921;-83
2023/03/02 04:41:39;;;;;;;;;;;;;;;;;;5027056;28;19917;-83
2023/03/02 04:44:05;;;;;;;;;;;;;;;;;;5020123;28;19924;-83
2023/03/02 04:46:30;;;;;;;;;;;;;;;;;;5023389;28;19917;-83
2023/03/02 04:48:55;;;;;;;;;;;;;;;;;;5020846;28;19924;-82
2023/03/02 04:51:23;;;;;;;;;;;;;;;;;;5017890;28;19921;-83
2023/03/02 04:53:49;;;;;;;;;;;;;;;;;;5021143;28;19913;-83
2023/03/02 04:56:14;;;;;;;;;;;;;;;;;;5027038;28;21667;-83
2023/03/02 04:58:39;;;;;;;;;;;;;;;;;;5018598;28;19924;-82
2023/03/02 05:01:06;;;;;;;;;;;;;;;;;;5006148;28;19928;-83
2023/03/02 05:03:31;;;;;;;;;;;;;;;;;;5021753;28;20039;-82
2023/03/02 05:05:56;;;;;;;;;;;;;;;;;;5021480;28;19913;-83
2023/03/02 05:08:23;;;;;;;;;;;;;;;;;;5024816;28;19925;-83
2023/03/02 05:10:48;;;;;;;;;;;;;;;;;;5020875;28;20039;-83
2023/03/02 05:13:13;;;;;;;;;;;;;;;;;;5023939;28;20426;-83
2023/03/02 05:15:38;;;;;;;;;;;;;;;;;;5025829;28;19920;-83
2023/03/02 05:18:03;;;;;;;;;;;;;;;;;;5021449;28;19928;-83
2023/03/02 05:20:30;;;;;;;;;;;;;;;;;;5023419;28;19997;-83
2023/03/02 05:22:55;;;;;;;;;;;;;;;;;;5018161;28;20407;-83
2023/03/02 05:25:20;;;;;;;;;;;;;;;;;;5019817;28;19928;-83
2023/03/02 05:27:45;;;;;;;;;;;;;;;;;;5025320;28;19913;-82
2023/03/02 05:30:11;;;;;;;;;;;;;;;;;;5025346;28;20314;-83
2023/03/02 05:32:36;;;;;;;;;;;;;;;;;;5023752;28;20003;-82
2023/03/02 05:35:01;;;;;;;;;;;;;;;;;;5018344;28;20016;-83
2023/03/02 05:37:26;;;;;;;;;;;;;;;;;;5024052;28;20012;-83
2023/03/02 05:39:52;;;;;;;;;;;;;;;;;;5024740;28;20290;-83
2023/03/02 05:42:17;;;;;;;;;;;;;;;;;;5019130;28;19963;-83
2023/03/02 05:44:42;;;;;;;;;;;;;;;;;;5021181;28;19913;-83
2023/03/02 05:47:07;;;;;;;;;;;;;;;;;;5009828;28;19917;-83
2023/03/02 05:49:32;;;;;;;;;;;;;;;;;;5029771;28;19928;-83
2023/03/02 05:51:58;;;;;;;;;;;;;;;;;;5021130;28;19917;-82
2023/03/02 05:54:23;;;;;;;;;;;;;;;;;;5023100;28;19950;-83
2023/03/02 05:56:48;;;;;;;;;;;;;;;;;;5022057;28;19963;-83
2023/03/02 05:59:14;;;;;;;;;;;;;;;;;;5022543;28;20374;-83
2023/03/02 06:01:39;;;;;;;;;;;;;;;;;;5024720;28;19924;-82
2023/03/02 06:04:04;;;;;;;;;;;;;;;;;;5022466;28;19917;-83
2023/03/02 06:06:29;;;;;;;;;;;;;;;;;;5024274;28;19916;-83
2023/03/02 06:08:54;;;;;;;;;;;;;;;;;;5020729;28;19918;-83
2023/03/02 06:11:19;;;;;;;;;;;;;;;;;;5025260;28;19921;-83
2023/03/02 06:13:45;;;;;;;;;;;;;;;;;;5026620;28;19913;-82
2023/03/02 06:16:10;;;;;;;;;;;;;;;;;;5024500;28;20078;-83
2023/03/02 06:18:35;;;;;;;;;;;;;;;;;;5019953;28;20409;-83
2023/03/02 06:21:00;;;;;;;;;;;;;;;;;;5024718;28;19921;-82
2023/03/02 06:23:25;;;;;;;;;;;;;;;;;;5023784;28;20375;-83
2023/03/02 06:25:51;;;;;;;;;;;;;;;;;;5006826;28;19999;-83
2023/03/02 06:28:18;;;;;;;;;;;;;;;;;;5016376;28;19921;-83
2023/03/02 06:30:43;;;;;;;;;;;;;;;;;;5011743;28;20077;-83
2023/03/02 06:33:09;;;;;;;;;;;;;;;;;;5027738;28;19913;-83
2023/03/02 06:35:34;;;;;;;;;;;;;;;;;;5020047;28;19913;-82
2023/03/02 06:37:59;;;;;;;;;;;;;;;;;;5017895;28;19921;-83
2023/03/02 06:40:24;;;;;;;;;;;;;;;;;;5022341;28;19917;-83
2023/03/02 06:42:49;;;;;;;;;;;;;;;;;;5025763;28;20279;-82
2023/03/02 06:45:15;;;;;;;;;;;;;;;;;;5017836;28;20002;-83
2023/03/02 06:47:40;;;;;;;;;;;;;;;;;;5024627;28;20059;-84
2023/03/02 06:50:05;;;;;;;;;;;;;;;;;;5028739;28;20688;-83
2023/03/02 06:52:30;;;;;;;;;;;;;;;;;;5026698;28;20390;-83
2023/03/02 06:54:55;;;;;;;;;;;;;;;;;;5016525;28;19992;-82
2023/03/02 06:57:20;;;;;;;;;;;;;;;;;;5016695;28;20532;-83
2023/03/02 06:59:46;;;;;;;;;;;;;;;;;;5018323;28;20401;-83
2023/03/02 07:02:11;;;;;;;;;;;;;;;;;;5017552;28;19917;-84
2023/03/02 07:04:36;;;;;;;;;;;;;;;;;;5018547;28;19913;-84
2023/03/02 07:07:01;;;;;;;;;;;;;;;;;;5026520;28;19914;-83
2023/03/02 07:09:29;;;;;;;;;;;;;;;;;;5026022;28;20899;-84
2023/03/02 07:11:54;;;;;;;;;;;;;;;;;;5019650;28;19979;-83
2023/03/02 07:14:19;;;;;;;;;;;;;;;;;;5019522;28;20034;-83
2023/03/02 07:16:45;;;;;;;;;;;;;;;;;;5009527;28;20367;-83
2023/03/02 07:19:10;;;;;;;;;;;;;;;;;;5023431;28;19959;-83
2023/03/02 07:21:35;;;;;;;;;;;;;;;;;;5023242;28;20290;-84
2023/03/02 07:24:00;;;;;;;;;;;;;;;;;;5027273;28;19917;-84
2023/03/02 07:26:25;;;;;;;;;;;;;;;;;;5021334;28;19929;-83
2023/03/02 07:28:51;;;;;;;;;;;;;;;;;;5018393;28;19925;-84
2023/03/02 07:31:16;;;;;;;;;;;;;;;;;;5027274;28;19925;-83
2023/03/02 07:33:41;;;;;;;;;;;;;;;;;;5027996;28;19913;-83
2023/03/02 07:36:07;;;;;;;;;;;;;;;;;;5026591;28;19982;-83
2023/03/02 07:38:32;;;;;;;;;;;;;;;;;;5019542;28;19924;-83
2023/03/02 07:40:57;;;;;;;;;;;;;;;;;;5009512;28;19917;-83
2023/03/02 07:43:27;;;;;;;;;;;;;;;;;;5020351;28;19917;-83
2023/03/02 07:45:52;;;;;;;;;;;;;;;;;;5025988;28;19913;-83
2023/03/02 07:48:18;;;;;;;;;;;;;;;;;;5026754;28;19917;-83
2023/03/02 07:50:43;;;;;;;;;;;;;;;;;;5025181;28;19939;-83
2023/03/02 07:53:09;;;;;;;;;;;;;;;;;;5020259;28;19952;-82
2023/03/02 07:55:34;;;;;;;;;;;;;;;;;;5023528;28;19925;-83
2023/03/02 07:57:59;;;;;;;;;;;;;;;;;;5031025;28;19913;-83
2023/03/02 08:00:24;;;;;;;;;;;;;;;;;;5019713;28;19947;-83
2023/03/02 08:02:49;;;;;;;;;;;;;;;;;;5023016;28;19917;-84
2023/03/02 08:05:15;;;;;;;;;;;;;;;;;;5024841;28;20386;-83
2023/03/02 08:07:41;;;;;;;;;;;;;;;;;;5029376;28;19964;-83
2023/03/02 08:10:06;;;;;;;;;;;;;;;;;;5021214;28;19960;-82
2023/03/02 08:12:31;;;;;;;;;;;;;;;;;;5029623;28;19913;-83
2023/03/02 08:14:57;;;;;;;;;;;;;;;;;;5025163;28;19917;-83
2023/03/02 08:17:22;;;;;;;;;;;;;;;;;;5021455;28;19921;-83
2023/03/02 08:19:47;;;;;;;;;;;;;;;;;;5026583;28;20417;-82
2023/03/02 08:22:12;;;;;;;;;;;;;;;;;;5022193;28;19913;-84
2023/03/02 08:24:40;;;;;;;;;;;;;;;;;;5020101;28;19967;-83
2023/03/02 08:27:05;;;;;;;;;;;;;;;;;;5029498;28;19955;-83
2023/03/02 08:29:30;;;;;;;;;;;;;;;;;;5018860;28;19917;-83
2023/03/02 08:31:57;;;;;;;;;;;;;;;;;;5026838;28;19917;-83
2023/03/02 08:34:22;;;;;;;;;;;;;;;;;;5025919;28;19921;-83
2023/03/02 08:36:47;;;;;;;;;;;;;;;;;;5027771;28;19963;-82
2023/03/02 08:39:13;;;;;;;;;;;;;;;;;;5022813;28;19956;-83
2023/03/02 08:41:38;;;;;;;;;;;;;;;;;;5025922;28;19917;-83
2023/03/02 08:44:03;;;;;;;;;;;;;;;;;;5020408;28;19967;-83
2023/03/02 08:46:29;;;;;;;;;;;;;;;;;;5020035;28;19917;-83
2023/03/02 08:48:54;;;;;;;;;;;;;;;;;;5024956;28;19928;-83
2023/03/02 08:51:20;;;;;;;;;;;;;;;;;;5017279;28;20000;-84
2023/03/02 08:53:45;;;;;;;;;;;;;;;;;;5025265;28;20478;-84
2023/03/02 08:56:10;;;;;;;;;;;;;;;;;;5022902;28;19952;-84
2023/03/02 08:58:35;;;;;;;;;;;;;;;;;;5023194;28;19912;-84
2023/03/02 09:01:00;;;;;;;;;;;;;;;;;;5024430;28;19948;-84
2023/03/02 09:03:28;;;;;;;;;;;;;;;;;;5025827;28;19920;-83
2023/03/02 09:06:11;;;;;;;;;;;;;;;;;;5019914;28;19917;-85
2023/03/02 09:08:39;;;;;;;;;;;;;;;;;;5007764;28;20448;-84
2023/03/02 09:11:06;;;;;;;;;;;;;;;;;;5031193;28;19921;-84
2023/03/02 09:13:31;;;;;;;;;;;;;;;;;;5025380;28;20427;-84
2023/03/02 09:15:56;;;;;;;;;;;;;;;;;;5020200;28;19913;-84
2023/03/02 09:18:21;;;;;;;;;;;;;;;;;;5024626;28;19959;-84
2023/03/02 09:20:47;;;;;;;;;;;;;;;;;;5017426;28;20468;-85
2023/03/02 09:23:12;;;;;;;;;;;;;;;;;;5021479;28;19979;-85
2023/03/02 09:25:37;;;;;;;;;;;;;;;;;;5020137;28;19944;-85
2023/03/02 09:28:03;;;;;;;;;;;;;;;;;;5026758;28;19952;-84
2023/03/02 09:30:28;;;;;;;;;;;;;;;;;;5028084;28;19928;-84
2023/03/02 09:32:53;;;;;;;;;;;;;;;;;;5021369;28;19972;-85
2023/03/02 09:35:18;;;;;;;;;;;;;;;;;;5018284;28;19917;-85
2023/03/02 09:37:44;;;;;;;;;;;;;;;;;;5021335;28;20350;-85
2023/03/02 09:40:09;;;;;;;;;;;;;;;;;;5025245;28;19924;-84
2023/03/02 09:42:34;;;;;;;;;;;;;;;;;;5020685;28;19917;-85
2023/03/02 09:44:59;;;;;;;;;;;;;;;;;;5016396;28;19921;-85
2023/03/02 09:47:24;;;;;;;;;;;;;;;;;;5017813;28;19917;-84
2023/03/02 09:49:50;;;;;;;;;;;;;;;;;;5019451;28;20343;-85
2023/03/02 09:52:15;;;;;;;;;;;;;;;;;;5026175;28;20306;-84
2023/03/02 09:54:40;;;;;;;;;;;;;;;;;;5005218;28;19918;-85
2023/03/02 09:57:05;;;;;;;;;;;;;;;;;;5018859;28;19913;-85
2023/03/02 09:59:30;;;;;;;;;;;;;;;;;;5017049;28;19913;-85
2023/03/02 10:01:56;;;;;;;;;;;;;;;;;;5001869;28;19984;-85
2023/03/02 10:04:21;;;;;;;;;;;;;;;;;;5024211;28;19929;-85
2023/03/02 10:06:46;;;;;;;;;;;;;;;;;;5030334;28;19917;-85
2023/03/02 10:09:11;;;;;;;;;;;;;;;;;;5021848;28;19921;-85
2023/03/02 10:11:37;;;;;;;;;;;;;;;;;;5019781;28;20387;-84
2023/03/02 10:14:02;;;;;;;;;;;;;;;;;;5023900;28;19920;-84
2023/03/02 10:16:27;;;;;;;;;;;;;;;;;;5027252;28;20056;-84
2023/03/02 10:18:52;;;;;;;;;;;;;;;;;;5019299;28;19921;-85
2023/03/02 10:21:20;;;;;;;;;;;;;;;;;;5026296;28;19921;-85
2023/03/02 10:23:45;;;;;;;;;;;;;;;;;;5015172;28;19918;-85
2023/03/02 10:26:10;;;;;;;;;;;;;;;;;;5019016;28;19940;-84
2023/03/02 10:28:36;;;;;;;;;;;;;;;;;;5020384;28;20286;-84
2023/03/02 10:31:01;;;;;;;;;;;;;;;;;;5024965;28;19947;-85
2023/03/02 10:33:26;;;;;;;;;;;;;;;;;;5024438;28;20401;-84
2023/03/02 10:35:51;;;;;;;;;;;;;;;;;;5025847;28;19917;-85
2023/03/02 10:38:16;;;;;;;;;;;;;;;;;;5017494;28;20015;-84
2023/03/02 10:40:42;;;;;;;;;;;;;;;;;;5022059;28;20086;-85
2023/03/02 10:43:07;;;;;;;;;;;;;;;;;;5024946;28;20434;-84
2023/03/02 10:45:32;;;;;;;;;;;;;;;;;;5017621;28;19917;-85
2023/03/02 10:47:57;;;;;;;;;;;;;;;;;;5019200;28;20619;-85
2023/03/02 10:50:23;;;;;;;;;;;;;;;;;;5017482;28;19921;-83
2023/03/02 10:52:48;;;;;;;;;;;;;;;;;;5023734;28;20015;-85
2023/03/02 10:55:13;;;;;;;;;;;;;;;;;;5021530;28;19972;-84
2023/03/02 10:57:38;;;;;;;;;;;;;;;;;;5017782;28;19918;-84
2023/03/02 11:00:03;;;;;;;;;;;;;;;;;;5020129;28;19920;-85
2023/03/02 11:02:29;;;;;;;;;;;;;;;;;;5020751;28;19921;-85
2023/03/02 11:07:38;;;;;;;;;;;;;;;;;;5016905;28;20027;-83
2023/03/02 11:10:04;;;;;;;;;;;;;;;;;;5015823;28;20398;-83
2023/03/02 11:12:29;;;;;;;;;;;;;;;;;;5017928;28;19918;-85
2023/03/02 11:14:55;;;;;;;;;;;;;;;;;;5004533;28;19914;-85
2023/03/02 11:17:20;;;;;;;;;;;;;;;;;;5008010;28;19964;-85
2023/03/02 11:19:45;;;;;;;;;;;;;;;;;;5021776;28;19913;-85
2023/03/02 11:22:10;;;;;;;;;;;;;;;;;;5018413;28;19921;-85
2023/03/02 11:24:36;;;;;;;;;;;;;;;;;;5015604;28;19913;-85
2023/03/02 11:27:01;;;;;;;;;;;;;;;;;;5014873;28;20248;-85
2023/03/02 11:29:27;;;;;;;;;;;;;;;;;;5025663;28;19917;-85
2023/03/02 11:31:52;;;;;;;;;;;;;;;;;;5026107;28;19920;-85
2023/03/02 11:34:17;;;;;;;;;;;;;;;;;;5021167;28;20590;-85
2023/03/02 11:36:42;;;;;;;;;;;;;;;;;;5018613;28;19960;-84
2023/03/02 11:39:08;;;;;;;;;;;;;;;;;;5020904;28;19917;-85
2023/03/02 11:41:34;;;;;;;;;;;;;;;;;;5016004;28;19914;-84
2023/03/02 11:43:59;;;;;;;;;;;;;;;;;;5022533;28;19917;-84
2023/03/02 11:46:25;;;;;;;;;;;;;;;;;;5027972;28;20382;-85
2023/03/02 11:48:50;;;;;;;;;;;;;;;;;;5020103;28;19921;-85
2023/03/02 11:51:15;;;;;;;;;;;;;;;;;;5008266;28;19913;-85
2023/03/02 11:53:41;;;;;;;;;;;;;;;;;;5022586;28;19935;-85
2023/03/02 11:56:06;;;;;;;;;;;;;;;;;;5008502;28;19959;-85
2023/03/02 11:58:31;;;;;;;;;;;;;;;;;;5018289;28;19914;-84
2023/03/02 12:00:57;;;;;;;;;;;;;;;;;;5025020;23;21396;-82
2023/03/02 12:03:22;;;;;;;;;;;;;;;;;;5014054;28;19978;-82
2023/03/02 12:05:47;;;;;;;;;;;;;;;;;;5046632;28;20389;-82
2023/03/02 12:08:12;;;;;;;;;;;;;;;;;;5038178;28;20268;-82
2023/03/02 12:10:37;;;;;;;;;;;;;;;;;;5039120;28;19909;-82
2023/03/02 12:13:03;;;;;;;;;;;;;;;;;;5026499;28;20297;-82
2023/03/02 12:15:28;;;;;;;;;;;;;;;;;;5037948;28;20421;-82
2023/03/02 12:17:53;;;;;;;;;;;;;;;;;;5043436;28;19964;-82
2023/03/02 12:20:18;;;;;;;;;;;;;;;;;;5045966;28;19979;-81
2023/03/02 12:22:43;;;;;;;;;;;;;;;;;;5043408;28;19921;-82
2023/03/02 12:25:08;;;;;;;;;;;;;;;;;;5037785;28;19916;-82
2023/03/02 12:27:34;;;;;;;;;;;;;;;;;;5038372;28;20365;-82
2023/03/02 12:29:59;;;;;;;;;;;;;;;;;;5046263;28;19921;-82
2023/03/02 12:32:24;;;;;;;;;;;;;;;;;;5046852;28;19948;-82
2023/03/02 12:34:49;;;;;;;;;;;;;;;;;;5026823;28;19947;-82
2023/03/02 12:37:15;;;;;;;;;;;;;;;;;;5036209;28;20057;-82
2023/03/02 12:39:40;;;;;;;;;;;;;;;;;;5040307;28;20175;-82
2023/03/02 12:42:05;;;;;;;;;;;;;;;;;;5041492;28;20402;-81
2023/03/02 12:44:31;;;;;;;;;;;;;;;;;;5027882;28;20401;-82
2023/03/02 12:46:56;;;;;;;;;;;;;;;;;;5044355;28;19948;-82
2023/03/02 12:49:21;;;;;;;;;;;;;;;;;;5043727;28;19917;-82
2023/03/02 12:51:46;;;;;;;;;;;;;;;;;;5042878;28;20063;-82
2023/03/02 12:54:12;;;;;;;;;;;;;;;;;;5035161;28;19963;-82
2023/03/02 12:56:37;;;;;;;;;;;;;;;;;;5043000;28;19944;-82
2023/03/02 12:59:02;;;;;;;;;;;;;;;;;;5050648;28;20654;-81
2023/03/02 13:01:27;;;;;;;;;;;;;;;;;;5037874;28;19925;-82
2023/03/02 13:03:52;;;;;;;;;;;;;;;;;;5041568;28;21168;-82
2023/03/02 13:06:18;;;;;;;;;;;;;;;;;;5048360;28;20461;-82
2023/03/02 13:08:43;;;;;;;;;;;;;;;;;;5050811;28;20202;-82
2023/03/02 13:11:08;;;;;;;;;;;;;;;;;;5045389;28;19912;-82
2023/03/02 13:13:33;;;;;;;;;;;;;;;;;;5036691;28;19917;-82
2023/03/02 13:15:58;;;;;;;;;;;;;;;;;;5029268;28;20009;-82
2023/03/02 13:18:24;;;;;;;;;;;;;;;;;;5042583;28;19917;-82
2023/03/02 13:20:49;;;;;;;;;;;;;;;;;;5044214;28;19916;-82
2023/03/02 13:23:14;;;;;;;;;;;;;;;;;;5039497;28;19956;-82
2023/03/02 13:25:39;;;;;;;;;;;;;;;;;;5040208;28;19924;-82
2023/03/02 13:28:06;;;;;;;;;;;;;;;;;;5035006;28;20041;-82
2023/03/02 13:30:31;;;;;;;;;;;;;;;;;;5044694;28;19921;-82
2023/03/02 13:32:58;;;;;;;;;;;;;;;;;;5038422;28;20396;-82
2023/03/02 13:35:23;;;;;;;;;;;;;;;;;;5038601;28;19921;-82
2023/03/02 13:37:48;;;;;;;;;;;;;;;;;;5035842;28;19940;-82
2023/03/02 13:40:13;;;;;;;;;;;;;;;;;;5037013;28;20358;-82
2023/03/02 13:42:39;;;;;;;;;;;;;;;;;;5045828;28;19916;-82
2023/03/02 13:45:04;;;;;;;;;;;;;;;;;;5044614;28;19921;-82
2023/03/02 13:47:29;;;;;;;;;;;;;;;;;;5037776;28;19921;-82
2023/03/02 13:49:54;;;;;;;;;;;;;;;;;;5033868;28;20310;-82
2023/03/02 13:52:20;;;;;;;;;;;;;;;;;;5039988;28;20009;-82
2023/03/02 13:54:45;;;;;;;;;;;;;;;;;;5034683;28;20353;-82
2023/03/02 13:57:10;;;;;;;;;;;;;;;;;;5034017;28;20366;-82
2023/03/02 13:59:35;;;;;;;;;;;;;;;;;;5045295;28;19917;-82
2023/03/02 14:02:01;;;;;;;;;;;;;;;;;;5041175;28;20506;-82
2023/03/02 14:04:26;;;;;;;;;;;;;;;;;;5027990;28;20012;-82
2023/03/02 14:06:51;;;;;;;;;;;;;;;;;;5037023;28;19916;-82
2023/03/02 14:09:16;;;;;;;;;;;;;;;;;;5042961;28;19929;-82
2023/03/02 14:11:42;;;;;;;;;;;;;;;;;;5033964;28;20448;-82
2023/03/02 14:14:07;;;;;;;;;;;;;;;;;;5034586;28;19916;-82
2023/03/02 14:16:34;;;;;;;;;;;;;;;;;;5037292;28;19928;-82
2023/03/02 14:19:00;;;;;;;;;;;;;;;;;;5034137;28;19920;-82
2023/03/02 14:21:25;;;;;;;;;;;;;;;;;;5040972;28;20007;-82
2023/03/02 14:23:51;;;;;;;;;;;;;;;;;;5034518;28;20290;-82
2023/03/02 14:26:16;;;;;;;;;;;;;;;;;;5038109;28;19917;-82
2023/03/02 14:28:41;;;;;;;;;;;;;;;;;;5043269;28;19924;-82
2023/03/02 14:31:06;;;;;;;;;;;;;;;;;;5046536;28;19921;-82
2023/03/02 14:33:32;;;;;;;;;;;;;;;;;;5042687;28;19982;-82
2023/03/02 14:35:57;;;;;;;;;;;;;;;;;;5037279;28;19916;-82
2023/03/02 14:38:22;;;;;;;;;;;;;;;;;;5030520;28;19921;-82
2023/03/02 14:40:47;;;;;;;;;;;;;;;;;;5045639;28;19967;-82
2023/03/02 14:43:12;;;;;;;;;;;;;;;;;;5032748;28;20000;-82
2023/03/02 14:45:37;;;;;;;;;;;;;;;;;;5039855;28;19932;-82
2023/03/02 14:48:03;;;;;;;;;;;;;;;;;;5036153;28;19975;-82
2023/03/02 14:50:28;;;;;;;;;;;;;;;;;;5023676;28;19931;-82
2023/03/02 14:52:53;;;;;;;;;;;;;;;;;;5044734;28;20437;-82
2023/03/02 14:55:19;;;;;;;;;;;;;;;;;;5032552;28;20012;-82
2023/03/02 14:57:44;;;;;;;;;;;;;;;;;;5039723;28;20309;-82
2023/03/02 15:00:10;;;;;;;;;;;;;;;;;;5042266;28;20370;-82
2023/03/02 15:02:35;;;;;;;;;;;;;;;;;;5050044;28;19920;-82
2023/03/02 15:05:00;;;;;;;;;;;;;;;;;;5036580;28;19916;-82
2023/03/02 15:07:25;;;;;;;;;;;;;;;;;;5041799;28;19921;-82
2023/03/02 15:09:50;;;;;;;;;;;;;;;;;;5040644;28;19917;-82
2023/03/02 15:12:16;;;;;;;;;;;;;;;;;;5029073;28;19966;-82
2023/03/02 15:14:41;;;;;;;;;;;;;;;;;;5039916;28;21113;-82
2023/03/02 15:17:06;;;;;;;;;;;;;;;;;;5034572;28;19920;-82
2023/03/02 15:19:31;;;;;;;;;;;;;;;;;;5045765;28;20409;-82
2023/03/02 15:21:56;;;;;;;;;;;;;;;;;;5045176;28;19917;-82
2023/03/02 15:24:22;;;;;;;;;;;;;;;;;;5033059;28;19928;-82
2023/03/02 15:26:47;;;;;;;;;;;;;;;;;;5034433;28;19909;-82
2023/03/02 15:29:12;;;;;;;;;;;;;;;;;;5036076;28;20366;-82
2023/03/02 15:31:37;;;;;;;;;;;;;;;;;;5041342;28;19913;-82
2023/03/02 15:34:02;;;;;;;;;;;;;;;;;;5034846;28;20457;-82
2023/03/02 15:36:28;;;;;;;;;;;;;;;;;;5042753;28;19917;-82
2023/03/02 15:38:53;;;;;;;;;;;;;;;;;;5037456;28;19986;-82
2023/03/02 15:41:19;;;;;;;;;;;;;;;;;;5035156;28;19917;-82
2023/03/02 15:43:44;;;;;;;;;;;;;;;;;;5038534;28;20286;-82
2023/03/02 15:46:09;;;;;;;;;;;;;;;;;;5039514;28;19920;-82
2023/03/02 15:48:34;;;;;;;;;;;;;;;;;;5038449;28;20405;-82
2023/03/02 15:50:59;;;;;;;;;;;;;;;;;;5027898;28;19973;-82
2023/03/02 15:53:24;;;;;;;;;;;;;;;;;;5038394;28;20290;-82
2023/03/02 15:55:50;;;;;;;;;;;;;;;;;;5039530;28;19917;-82
2023/03/02 15:58:16;;;;;;;;;;;;;;;;;;5046343;28;19917;-82
2023/03/02 16:00:41;;;;;;;;;;;;;;;;;;5047427;28;19924;-82
2023/03/02 16:03:06;;;;;;;;;;;;;;;;;;5042593;28;19913;-82
2023/03/02 16:05:32;;;;;;;;;;;;;;;;;;5030212;28;19959;-82
2023/03/02 16:07:57;;;;;;;;;;;;;;;;;;5040616;28;19912;-82
2023/03/02 16:10:25;;;;;;;;;;;;;;;;;;5044155;28;19952;-82
2023/03/02 16:12:50;;;;;;;;;;;;;;;;;;5037873;28;19944;-82
2023/03/02 16:15:16;;;;;;;;;;;;;;;;;;5040214;28;19999;-82
2023/03/02 16:17:41;;;;;;;;;;;;;;;;;;5040328;28;19917;-82
2023/03/02 16:20:06;;;;;;;;;;;;;;;;;;5043978;28;19921;-82
2023/03/02 16:22:32;;;;;;;;;;;;;;;;;;5041202;28;19908;-82
2023/03/02 16:24:57;;;;;;;;;;;;;;;;;;5043541;28;19917;-82
2023/03/02 16:27:22;;;;;;;;;;;;;;;;;;5042615;28;20371;-82
2023/03/02 16:29:47;;;;;;;;;;;;;;;;;;5043186;28;20095;-82
2023/03/02 16:32:13;;;;;;;;;;;;;;;;;;5044293;28;19917;-82
2023/03/02 16:34:39;;;;;;;;;;;;;;;;;;5041507;28;19909;-82